Hoytville, Ohio
Current Conditions -  °F | °C
As of 1:21 PM on Monday 26 Jan 2015 (Local Time) from KFDY Reporting Station
Scattered Clouds Scattered Clouds  
Wind Chill: 10°   Ceiling: Unl
Heat Index: 19°   Visibility: 10mi
Dew Point: 10°   Wind: 7mph
Humidity: 68%   Direction: 330°NNW
Pressure: 29.88"   Gusts: NA
Location:  41.19°N, 83.78°W
Report Text: KFDY 261821Z AUTO 33006KT 10SM SCT015 M07/M12 A2988 RMK AO2 T10721122
Loading
Personal Weather Stations






























Interactive Weather Map New forecast layout! Learn more

10-Day Weather Forecast

Advertisements
Track Severe Weather on mobile